ACA2210 CYVR-EIDW
Flight info
| Callsign | ACA2210 |
|---|---|
| Flight time | N/A |
| Altitude | 35000 |
| Route | DOLLR DCT GARRE DCT SEATN DCT 52N120W 57N110W/N0488F370 5930N10000W 6130N09000W 63N080W 6330N07000W DCT KAGLY/M084F390 DCT EMBOK DCT 63N050W 6230N04000W 61N030W 5830N02000W DCT SUNOT/N0482F390 DCT KESIX DCT NIBOG DCT MOLAK DCT OLAPO OLAPO4L |
| Aircraft | B772/H-SDE2E3FGHIJ5LORVWXY/LB1D1 |
Departure
| Time | 2026-05-06 11:00 |
|---|---|
| Airport | Vancouver International Airport (CYVR) |
Arrival
| Time | N/A |
|---|---|
| Airport | Dublin Airport (EIDW) |
| Time | Latitude | Longitude | Altitude | Speed | Heading |
|---|---|---|---|---|---|
| 2026-05-06 10:36 | 49.19573 | -123.18034 | 25 ft | 0 kts | 155° |
| 2026-05-06 10:49 | 49.19577 | -123.18037 | 25 ft | 2 kts | 155° |
| 2026-05-06 10:49 | 49.19590 | -123.18047 | 25 ft | 2 kts | 154° |
| 2026-05-06 10:49 | 49.19604 | -123.18057 | 25 ft | 2 kts | 155° |
| 2026-05-06 10:49 | 49.19617 | -123.18067 | 25 ft | 2 kts | 155° |
| 2026-05-06 10:50 | 49.19631 | -123.18076 | 25 ft | 2 kts | 163° |
| 2026-05-06 10:50 | 49.19646 | -123.18080 | 25 ft | 2 kts | 184° |
| 2026-05-06 10:50 | 49.19661 | -123.18076 | 25 ft | 2 kts | 200° |
| 2026-05-06 10:50 | 49.19667 | -123.18072 | 25 ft | 0 kts | 205° |
| 2026-05-06 10:53 | 49.19658 | -123.18079 | 25 ft | 3 kts | 212° |
| 2026-05-06 10:53 | 49.19642 | -123.18153 | 25 ft | 11 kts | 287° |
| 2026-05-06 10:54 | 49.19680 | -123.18276 | 25 ft | 13 kts | 287° |
| 2026-05-06 10:54 | 49.19699 | -123.18426 | 23 ft | 15 kts | 279° |
| 2026-05-06 10:54 | 49.19732 | -123.18595 | 22 ft | 17 kts | 289° |
| 2026-05-06 10:54 | 49.19759 | -123.18774 | 22 ft | 17 kts | 281° |
| 2026-05-06 10:55 | 49.19781 | -123.18962 | 22 ft | 18 kts | 281° |
| 2026-05-06 10:55 | 49.19785 | -123.19096 | 22 ft | 10 kts | 237° |
| 2026-05-06 10:55 | 49.19717 | -123.19144 | 22 ft | 11 kts | 191° |
| 2026-05-06 10:55 | 49.19633 | -123.19166 | 22 ft | 12 kts | 189° |
| 2026-05-06 10:56 | 49.19544 | -123.19190 | 22 ft | 13 kts | 190° |
| 2026-05-06 10:56 | 49.19449 | -123.19215 | 22 ft | 14 kts | 190° |
| 2026-05-06 10:56 | 49.19350 | -123.19247 | 22 ft | 14 kts | 208° |
| 2026-05-06 10:56 | 49.19311 | -123.19392 | 22 ft | 15 kts | 260° |
| 2026-05-06 10:57 | 49.19291 | -123.19556 | 22 ft | 16 kts | 260° |
| 2026-05-06 10:57 | 49.19271 | -123.19723 | 24 ft | 15 kts | 259° |
| 2026-05-06 10:57 | 49.19250 | -123.19883 | 25 ft | 15 kts | 259° |
| 2026-05-06 10:57 | 49.19228 | -123.20059 | 26 ft | 18 kts | 259° |
| 2026-05-06 10:58 | 49.19203 | -123.20268 | 28 ft | 21 kts | 259° |
| 2026-05-06 10:58 | 49.19180 | -123.20496 | 28 ft | 21 kts | 272° |
| 2026-05-06 10:58 | 49.19201 | -123.20709 | 25 ft | 13 kts | 279° |
| 2026-05-06 10:58 | 49.19150 | -123.20822 | 22 ft | 15 kts | 200° |
| 2026-05-06 10:59 | 49.19041 | -123.20834 | 22 ft | 15 kts | 149° |
| 2026-05-06 10:59 | 49.18998 | -123.20694 | 25 ft | 14 kts | 99° |
| 2026-05-06 10:59 | 49.18980 | -123.20516 | 28 ft | 24 kts | 99° |
| 2026-05-06 10:59 | 49.18914 | -123.19942 | 25 ft | 91 kts | 99° |
| 2026-05-06 11:00 | 49.18772 | -123.18650 | 28 ft | 151 kts | 99° |
| 2026-05-06 11:00 | 49.18593 | -123.16990 | 473 ft | 162 kts | 98° |
| 2026-05-06 11:00 | 49.18460 | -123.15244 | 1137 ft | 171 kts | 97° |
| 2026-05-06 11:00 | 49.18312 | -123.13393 | 1755 ft | 185 kts | 100° |
| 2026-05-06 11:01 | 49.18106 | -123.11382 | 2359 ft | 202 kts | 100° |
| 2026-05-06 11:01 | 49.17894 | -123.09242 | 2712 ft | 209 kts | 99° |
| 2026-05-06 11:01 | 49.17690 | -123.06947 | 2821 ft | 226 kts | 93° |
| 2026-05-06 11:01 | 49.18052 | -123.04547 | 2936 ft | 245 kts | 60° |
| 2026-05-06 11:02 | 49.19317 | -123.02767 | 3183 ft | 258 kts | 27° |
| 2026-05-06 11:02 | 49.20985 | -123.01656 | 3633 ft | 263 kts | 22° |
| 2026-05-06 11:02 | 49.22681 | -123.00608 | 4113 ft | 266 kts | 22° |
| 2026-05-06 11:02 | 49.24410 | -122.99544 | 4635 ft | 268 kts | 21° |
| 2026-05-06 11:03 | 49.26160 | -122.98467 | 5115 ft | 271 kts | 21° |
| 2026-05-06 11:03 | 49.27899 | -122.97396 | 5599 ft | 273 kts | 21° |
| 2026-05-06 11:03 | 49.29671 | -122.96304 | 6049 ft | 276 kts | 20° |
| 2026-05-06 11:03 | 49.31473 | -122.95192 | 6520 ft | 278 kts | 20° |
| 2026-05-06 11:04 | 49.33262 | -122.94077 | 7025 ft | 280 kts | 22° |
| 2026-05-06 11:04 | 49.35006 | -122.92747 | 7510 ft | 282 kts | 26° |
| 2026-05-06 11:04 | 49.36724 | -122.91330 | 7961 ft | 284 kts | 26° |
| 2026-05-06 11:04 | 49.38481 | -122.89879 | 8395 ft | 287 kts | 26° |
| 2026-05-06 11:05 | 49.40257 | -122.88417 | 8850 ft | 289 kts | 25° |
| 2026-05-06 11:05 | 49.42010 | -122.86976 | 9285 ft | 291 kts | 25° |
| 2026-05-06 11:05 | 49.43805 | -122.85499 | 9725 ft | 294 kts | 25° |
| 2026-05-06 11:05 | 49.45615 | -122.84009 | 10153 ft | 297 kts | 25° |
| 2026-05-06 11:06 | 49.47488 | -122.82469 | 10260 ft | 312 kts | 25° |
| 2026-05-06 11:06 | 49.49429 | -122.80871 | 10323 ft | 328 kts | 25° |
| 2026-05-06 11:06 | 49.51488 | -122.79172 | 10398 ft | 344 kts | 26° |
| 2026-05-06 11:06 | 49.53655 | -122.77382 | 10477 ft | 359 kts | 26° |
| 2026-05-06 11:07 | 49.55870 | -122.75549 | 10694 ft | 369 kts | 26° |
| 2026-05-06 11:07 | 49.58147 | -122.73663 | 11141 ft | 371 kts | 26° |
| 2026-05-06 11:07 | 49.60408 | -122.71787 | 11632 ft | 373 kts | 25° |
| 2026-05-06 11:07 | 49.62710 | -122.69877 | 12124 ft | 376 kts | 25° |
| 2026-05-06 11:08 | 49.64999 | -122.67975 | 12631 ft | 378 kts | 25° |
| 2026-05-06 11:08 | 49.67328 | -122.66038 | 13162 ft | 381 kts | 25° |
| 2026-05-06 11:08 | 49.69657 | -122.64100 | 13701 ft | 384 kts | 25° |
| 2026-05-06 11:08 | 49.72010 | -122.62139 | 14282 ft | 387 kts | 25° |
| 2026-05-06 11:09 | 49.74380 | -122.60163 | 14848 ft | 391 kts | 24° |
| 2026-05-06 11:09 | 49.76809 | -122.58134 | 15452 ft | 396 kts | 24° |
| 2026-05-06 11:09 | 49.79129 | -122.56195 | 16061 ft | 398 kts | 24° |
| 2026-05-06 11:09 | 49.81446 | -122.54255 | 16635 ft | 401 kts | 24° |
| 2026-05-06 11:10 | 49.83908 | -122.52193 | 17189 ft | 405 kts | 24° |
| 2026-05-06 11:10 | 49.86410 | -122.50094 | 17734 ft | 409 kts | 24° |
| 2026-05-06 11:10 | 49.88940 | -122.48101 | 18290 ft | 410 kts | 18° |
| 2026-05-06 11:10 | 49.91632 | -122.46735 | 18814 ft | 409 kts | 8° |
| 2026-05-06 11:11 | 49.94426 | -122.46085 | 19314 ft | 409 kts | 0° |